createdAt,value
2023-09-04T00:00:11.821Z,16.83
2023-09-04T00:02:43.481Z,16.82
2023-09-04T00:05:15.174Z,16.80
2023-09-04T00:07:46.780Z,16.78
2023-09-04T00:10:18.330Z,16.76
2023-09-04T00:12:49.964Z,16.74
2023-09-04T00:15:21.811Z,16.73
2023-09-04T00:17:53.472Z,16.71
2023-09-04T00:20:25.744Z,16.68
2023-09-04T00:22:57.341Z,16.68
2023-09-04T00:25:28.958Z,16.68
2023-09-04T00:28:00.622Z,16.68
2023-09-04T00:30:32.561Z,16.67
2023-09-04T00:33:04.551Z,16.64
2023-09-04T00:35:36.185Z,16.64
2023-09-04T00:38:07.820Z,16.62
2023-09-04T00:40:39.635Z,16.61
2023-09-04T00:43:11.469Z,16.59
2023-09-04T00:45:45.359Z,16.59
2023-09-04T00:48:17.145Z,16.58
2023-09-04T00:50:48.696Z,16.58
2023-09-04T00:53:20.270Z,16.56
2023-09-04T00:55:51.951Z,16.51
2023-09-04T00:58:23.823Z,16.50
2023-09-04T01:00:55.806Z,16.48
2023-09-04T01:03:28.201Z,16.47
2023-09-04T01:05:59.832Z,16.43
2023-09-04T01:08:31.581Z,16.40
2023-09-04T01:11:05.893Z,16.37
2023-09-04T01:13:44.558Z,16.34
2023-09-04T01:16:18.177Z,16.28
2023-09-04T01:18:50.590Z,16.25
2023-09-04T01:21:22.306Z,16.23
2023-09-04T01:23:54.024Z,16.21
2023-09-04T01:26:31.552Z,16.21
2023-09-04T01:29:18.290Z,16.18
2023-09-04T01:32:05.862Z,16.14
2023-09-04T01:34:47.990Z,16.13
2023-09-04T01:37:20.800Z,16.12
2023-09-04T01:39:53.948Z,16.10
2023-09-04T01:42:25.479Z,16.07
2023-09-04T01:44:57.124Z,16.06
2023-09-04T01:47:28.806Z,16.04
2023-09-04T01:50:00.473Z,15.99
2023-09-04T01:52:32.000Z,15.96
2023-09-04T01:55:03.738Z,15.93
2023-09-04T01:57:35.264Z,15.91
2023-09-04T02:00:07.479Z,15.86
2023-09-04T02:02:39.120Z,15.83
2023-09-04T02:05:10.935Z,15.79
2023-09-04T02:07:42.516Z,15.78
2023-09-04T02:10:14.136Z,15.77
2023-09-04T02:12:45.679Z,15.76
2023-09-04T02:15:17.301Z,15.76
2023-09-04T02:17:48.911Z,15.75
2023-09-04T02:20:20.531Z,15.71
2023-09-04T02:22:52.432Z,15.70
2023-09-04T02:25:25.208Z,15.69
2023-09-04T02:27:56.787Z,15.69
2023-09-04T02:30:28.358Z,15.70
2023-09-04T02:33:01.301Z,15.70
2023-09-04T02:35:33.215Z,15.70
2023-09-04T02:38:04.921Z,15.70
2023-09-04T02:40:37.090Z,15.70
2023-09-04T02:43:08.519Z,15.68
2023-09-04T02:45:41.489Z,15.70
2023-09-04T02:48:13.110Z,15.68
2023-09-04T02:50:44.811Z,15.66
2023-09-04T02:53:16.372Z,15.66
2023-09-04T02:55:51.416Z,15.65
2023-09-04T02:58:23.441Z,15.61
2023-09-04T03:00:55.381Z,15.59
2023-09-04T03:03:27.027Z,15.58
2023-09-04T03:06:07.103Z,15.56
2023-09-04T03:08:41.605Z,15.55
2023-09-04T03:11:14.929Z,15.52
2023-09-04T03:13:46.625Z,15.51
2023-09-04T03:16:18.274Z,15.52
2023-09-04T03:18:49.946Z,15.52
2023-09-04T03:21:21.520Z,15.52
2023-09-04T03:23:53.186Z,15.53
2023-09-04T03:26:24.772Z,15.53
2023-09-04T03:28:57.126Z,15.52
2023-09-04T03:31:28.757Z,15.51
2023-09-04T03:34:01.670Z,15.51
2023-09-04T03:36:33.247Z,15.50
2023-09-04T03:39:07.874Z,15.51
2023-09-04T03:41:39.566Z,15.52
2023-09-04T03:44:11.160Z,15.50
2023-09-04T03:46:43.052Z,15.50
2023-09-04T03:49:14.879Z,15.48
2023-09-04T03:51:46.437Z,15.48
2023-09-04T03:54:17.977Z,15.43
2023-09-04T03:56:50.024Z,15.44
2023-09-04T03:59:21.589Z,15.43
2023-09-04T04:01:53.232Z,15.42
2023-09-04T04:04:24.853Z,15.41
2023-09-04T04:06:56.953Z,15.39
2023-09-04T04:09:28.559Z,15.35
2023-09-04T04:12:00.256Z,15.35
2023-09-04T04:14:31.779Z,15.32
2023-09-04T04:17:03.386Z,15.32
2023-09-04T04:19:35.311Z,15.31
2023-09-04T04:22:06.902Z,15.30
2023-09-04T04:24:38.489Z,15.27
2023-09-04T04:27:10.977Z,15.28
2023-09-04T04:29:44.290Z,15.27
2023-09-04T04:32:16.488Z,15.26
2023-09-04T04:34:47.912Z,15.25
2023-09-04T04:37:19.470Z,15.25
2023-09-04T04:39:52.887Z,15.26
2023-09-04T04:42:27.569Z,15.24
2023-09-04T04:44:59.166Z,15.22
2023-09-04T04:47:30.803Z,15.23
2023-09-04T04:50:02.937Z,15.22
2023-09-04T04:52:34.451Z,15.23
2023-09-04T04:55:06.436Z,15.26
2023-09-04T04:57:38.063Z,15.27
2023-09-04T05:00:09.990Z,15.29
2023-09-04T05:02:41.892Z,15.32
2023-09-04T05:05:13.494Z,15.33
2023-09-04T05:07:45.066Z,15.34
2023-09-04T05:10:16.709Z,15.39
2023-09-04T05:12:48.288Z,15.44
2023-09-04T05:15:19.856Z,15.47
2023-09-04T05:17:51.520Z,15.52
2023-09-04T05:20:23.142Z,15.56
2023-09-04T05:22:54.752Z,15.61
2023-09-04T05:25:26.295Z,15.68
2023-09-04T05:27:57.863Z,15.72
2023-09-04T05:30:29.410Z,15.77
2023-09-04T05:33:01.025Z,15.82
2023-09-04T05:35:32.561Z,15.85
2023-09-04T05:38:04.360Z,15.90
2023-09-04T05:40:35.987Z,15.97
2023-09-04T05:43:07.535Z,16.03
2023-09-04T05:45:40.187Z,16.08
2023-09-04T05:48:11.797Z,16.15
2023-09-04T05:50:44.355Z,16.19
2023-09-04T05:53:19.466Z,16.24
2023-09-04T05:56:11.900Z,16.28
2023-09-04T05:58:44.259Z,16.36
2023-09-04T06:01:17.609Z,16.40
2023-09-04T06:03:50.005Z,16.47
2023-09-04T06:06:21.785Z,16.53
2023-09-04T06:08:53.363Z,16.60
2023-09-04T06:11:24.992Z,16.66
2023-09-04T06:13:56.601Z,16.72
2023-09-04T06:16:28.218Z,16.77
2023-09-04T06:18:59.844Z,16.81
2023-09-04T06:21:31.480Z,16.85
2023-09-04T06:24:03.171Z,16.90
2023-09-04T06:26:34.684Z,16.92
2023-09-04T06:29:06.277Z,16.97
2023-09-04T06:31:37.951Z,17.00
2023-09-04T06:34:09.532Z,17.03
2023-09-04T06:36:41.067Z,17.05
2023-09-04T06:39:12.676Z,17.11
2023-09-04T06:41:44.220Z,17.17
2023-09-04T06:44:15.775Z,17.21
2023-09-04T06:46:47.313Z,17.27
2023-09-04T06:49:18.880Z,17.30
2023-09-04T06:51:50.412Z,17.33
2023-09-04T06:54:21.993Z,17.36
2023-09-04T06:56:53.683Z,17.40
2023-09-04T06:59:25.238Z,17.46
2023-09-04T07:01:56.789Z,17.42
2023-09-04T07:04:28.364Z,17.51
2023-09-04T07:06:59.864Z,17.59
2023-09-04T07:09:31.420Z,17.67
2023-09-04T07:12:03.141Z,17.73
2023-09-04T07:14:34.752Z,17.80
2023-09-04T07:17:09.458Z,17.85
2023-09-04T07:19:41.726Z,17.89
2023-09-04T07:22:13.304Z,17.97
2023-09-04T07:24:44.907Z,18.02
2023-09-04T07:27:16.442Z,18.05
2023-09-04T07:29:48.058Z,18.08
2023-09-04T07:32:19.594Z,18.17
2023-09-04T07:34:56.646Z,18.24
2023-09-04T07:37:28.507Z,18.32
2023-09-04T07:40:00.157Z,18.39
2023-09-04T07:42:31.895Z,18.48
2023-09-04T07:45:04.700Z,18.55
2023-09-04T07:47:36.219Z,18.63
2023-09-04T07:50:08.130Z,18.70
2023-09-04T07:52:39.728Z,18.75
2023-09-04T07:55:11.419Z,18.85
2023-09-04T07:57:44.324Z,18.92
2023-09-04T08:00:22.687Z,19.00
2023-09-04T08:02:54.379Z,19.08
2023-09-04T08:05:26.100Z,19.14
2023-09-04T08:07:57.654Z,19.23
2023-09-04T08:10:29.263Z,19.31
2023-09-04T08:13:01.089Z,19.38
2023-09-04T08:15:32.669Z,19.46
2023-09-04T08:18:04.746Z,19.57
2023-09-04T08:20:37.338Z,19.63
2023-09-04T08:23:10.680Z,19.70
2023-09-04T08:25:42.310Z,19.78
2023-09-04T08:28:13.827Z,19.86
2023-09-04T08:30:45.461Z,19.96
2023-09-04T08:33:17.017Z,20.12
2023-09-04T08:35:48.595Z,20.17
2023-09-04T08:38:20.150Z,20.28
2023-09-04T08:40:51.838Z,20.40
2023-09-04T08:43:26.390Z,20.56
2023-09-04T08:46:00.854Z,20.67
2023-09-04T08:48:35.249Z,20.70
2023-09-04T08:53:59.656Z,20.91
2023-09-04T08:56:33.100Z,20.99
2023-09-04T08:59:04.709Z,21.01
2023-09-04T09:01:37.773Z,21.08
2023-09-04T09:04:10.336Z,21.10
2023-09-04T09:06:43.365Z,21.25
2023-09-04T09:09:17.198Z,21.35
2023-09-04T09:11:55.125Z,21.36
2023-09-04T09:14:28.113Z,21.46
2023-09-04T09:17:07.017Z,21.60
2023-09-04T09:19:39.469Z,21.72
2023-09-04T09:22:15.989Z,21.83
2023-09-04T09:24:53.520Z,21.94
2023-09-04T09:27:32.413Z,22.06
2023-09-04T09:30:04.705Z,22.11
2023-09-04T09:32:36.950Z,22.24
2023-09-04T09:35:10.240Z,22.39
2023-09-04T09:37:41.811Z,22.41
2023-09-04T09:40:16.658Z,22.57
2023-09-04T09:42:48.329Z,22.65
2023-09-04T09:45:20.674Z,22.79
2023-09-04T09:50:27.822Z,23.00
2023-09-04T09:53:01.229Z,23.04
2023-09-04T09:55:34.625Z,23.10
2023-09-04T09:58:08.205Z,23.18
2023-09-04T10:00:40.469Z,23.27
2023-09-04T10:03:13.138Z,23.37
2023-09-04T10:05:46.004Z,23.44
2023-09-04T10:08:18.165Z,23.64
2023-09-04T10:10:50.804Z,23.74
2023-09-04T10:13:27.925Z,23.83
2023-09-04T10:16:03.609Z,23.97
2023-09-04T10:18:41.628Z,23.97
2023-09-04T10:21:18.370Z,24.10
2023-09-04T10:23:57.130Z,24.17
2023-09-04T10:26:43.066Z,24.27
2023-09-04T10:29:19.300Z,24.21
2023-09-04T10:31:51.875Z,24.27
2023-09-04T10:34:23.652Z,24.41
2023-09-04T10:36:55.243Z,24.51
2023-09-04T10:39:27.345Z,24.56
2023-09-04T10:41:59.331Z,24.57
2023-09-04T10:44:48.193Z,24.59
2023-09-04T10:47:20.145Z,24.72
2023-09-04T10:49:52.400Z,24.84
2023-09-04T10:52:42.199Z,24.95
2023-09-04T10:55:14.776Z,25.02
2023-09-04T10:58:06.350Z,25.17
2023-09-04T11:00:42.065Z,25.32
2023-09-04T11:03:16.303Z,25.40
2023-09-04T11:06:03.025Z,25.40
2023-09-04T11:08:41.563Z,25.54
2023-09-04T11:11:13.167Z,25.66
2023-09-04T11:13:45.361Z,25.76
2023-09-04T11:16:17.197Z,25.81
2023-09-04T11:19:00.196Z,25.86
2023-09-04T11:21:33.669Z,25.86
2023-09-04T11:24:05.848Z,25.90
2023-09-04T11:26:37.634Z,25.98
2023-09-04T11:29:09.003Z,26.01
2023-09-04T11:31:44.740Z,25.99
2023-09-04T11:34:23.784Z,26.11
2023-09-04T11:36:55.281Z,26.24
2023-09-04T11:39:26.875Z,26.38
2023-09-04T11:42:01.496Z,26.53
2023-09-04T11:44:33.085Z,26.45
2023-09-04T11:47:05.221Z,26.62
2023-09-04T11:49:36.851Z,26.71
2023-09-04T11:52:08.564Z,26.77
2023-09-04T11:54:41.302Z,26.90
2023-09-04T11:57:13.327Z,26.79
2023-09-04T11:59:44.883Z,26.98
2023-09-04T12:02:16.831Z,27.15
2023-09-04T12:04:48.571Z,27.19
2023-09-04T12:07:20.281Z,27.06
2023-09-04T12:09:51.916Z,27.11
2023-09-04T12:12:23.486Z,27.25
2023-09-04T12:14:54.997Z,27.19
2023-09-04T12:17:30.820Z,27.29
2023-09-04T12:20:12.096Z,27.31
2023-09-04T12:22:54.941Z,27.49
2023-09-04T12:25:33.277Z,27.53
2023-09-04T12:28:11.884Z,27.58
2023-09-04T12:30:47.471Z,27.68
2023-09-04T12:33:19.166Z,27.62
2023-09-04T12:35:58.120Z,27.72
2023-09-04T12:38:29.905Z,27.86
2023-09-04T12:41:03.123Z,27.92
2023-09-04T12:43:35.576Z,27.96
2023-09-04T12:46:07.551Z,28.02
2023-09-04T12:48:39.166Z,28.07
2023-09-04T12:51:10.828Z,28.11
2023-09-04T12:53:42.326Z,28.17
2023-09-04T12:56:13.842Z,28.22
2023-09-04T12:58:45.440Z,28.35
2023-09-04T13:01:17.426Z,28.31
2023-09-04T13:03:49.149Z,28.40
2023-09-04T13:06:20.866Z,28.41
2023-09-04T13:08:52.549Z,28.50
2023-09-04T13:11:24.109Z,28.52
2023-09-04T13:13:55.745Z,28.54
2023-09-04T13:16:27.186Z,28.69
2023-09-04T13:18:58.821Z,28.79
2023-09-04T13:21:30.381Z,28.75
2023-09-04T13:24:02.101Z,28.79
2023-09-04T13:26:33.470Z,28.62
2023-09-04T13:29:05.125Z,28.69
2023-09-04T13:31:36.560Z,28.78
2023-09-04T13:34:08.167Z,28.93
2023-09-04T13:36:39.679Z,29.06
2023-09-04T13:39:11.270Z,29.20
2023-09-04T13:41:42.639Z,29.13
2023-09-04T13:44:14.411Z,29.39
2023-09-04T13:46:46.099Z,29.51
2023-09-04T13:49:17.579Z,29.65
2023-09-04T13:51:49.273Z,29.84
2023-09-04T13:54:20.910Z,30.13
2023-09-04T13:56:52.383Z,30.84
2023-09-04T13:59:23.973Z,32.07
2023-09-04T14:01:55.406Z,33.90
2023-09-04T14:04:27.102Z,36.55
2023-09-04T14:06:58.668Z,39.09
2023-09-04T14:09:30.247Z,41.35
2023-09-04T14:12:02.033Z,43.33
2023-09-04T14:14:33.733Z,44.68
2023-09-04T14:17:06.275Z,45.44
2023-09-04T14:19:37.754Z,46.88
2023-09-04T14:22:09.173Z,48.20
2023-09-04T14:24:40.599Z,48.78
2023-09-04T14:27:12.011Z,49.80
2023-09-04T14:29:43.793Z,50.66
2023-09-04T14:32:15.563Z,50.12
2023-09-04T14:34:47.186Z,51.27
2023-09-04T14:37:18.930Z,51.21
2023-09-04T14:39:53.835Z,51.33
2023-09-04T14:42:25.237Z,51.99
2023-09-04T14:44:56.787Z,50.96
2023-09-04T14:47:28.184Z,52.43
2023-09-04T14:49:59.790Z,52.44
2023-09-04T14:52:31.339Z,52.53
2023-09-04T14:55:03.010Z,52.64
2023-09-04T14:57:34.562Z,52.78
2023-09-04T15:00:07.371Z,52.96
2023-09-04T15:02:39.056Z,52.82
2023-09-04T15:05:10.736Z,53.37
2023-09-04T15:07:45.146Z,53.51
2023-09-04T15:10:17.616Z,52.23
2023-09-04T15:12:49.340Z,52.52
2023-09-04T15:15:21.031Z,51.55
2023-09-04T15:17:52.629Z,52.22
2023-09-04T15:20:24.419Z,52.82
2023-09-04T15:22:55.978Z,52.41
2023-09-04T15:25:27.558Z,52.43
2023-09-04T15:28:00.410Z,52.16
2023-09-04T15:30:31.997Z,52.28
2023-09-04T15:33:03.725Z,52.58
2023-09-04T15:35:35.369Z,53.12
2023-09-04T15:38:07.505Z,53.34
2023-09-04T15:40:39.049Z,53.62
2023-09-04T15:43:10.583Z,53.43
2023-09-04T15:45:42.417Z,53.50
2023-09-04T15:48:16.022Z,54.11
2023-09-04T15:50:50.839Z,53.89
2023-09-04T15:53:24.568Z,53.70
2023-09-04T15:55:56.907Z,53.46
2023-09-04T15:58:28.948Z,52.29
2023-09-04T16:01:01.651Z,53.06
2023-09-04T16:03:33.822Z,50.10
2023-09-04T16:06:05.523Z,50.84
2023-09-04T16:08:37.478Z,51.78
2023-09-04T16:11:09.052Z,52.21
2023-09-04T16:13:40.610Z,50.03
2023-09-04T16:16:12.312Z,43.94
2023-09-04T16:18:43.909Z,40.10
2023-09-04T16:21:16.091Z,37.34
2023-09-04T16:23:47.618Z,35.30
2023-09-04T16:26:19.250Z,33.90
2023-09-04T16:28:51.446Z,32.82
2023-09-04T16:31:25.248Z,31.58
2023-09-04T16:33:56.796Z,30.82
2023-09-04T16:36:28.485Z,30.14
2023-09-04T16:39:00.618Z,29.60
2023-09-04T16:41:32.210Z,29.05
2023-09-04T16:44:03.910Z,28.55
2023-09-04T16:46:36.158Z,28.22
2023-09-04T16:49:08.029Z,27.89
2023-09-04T16:51:53.983Z,27.60
2023-09-04T16:54:28.345Z,27.13
2023-09-04T16:57:00.025Z,26.93
2023-09-04T16:59:31.601Z,26.69
2023-09-04T17:02:03.088Z,26.34
2023-09-04T17:04:34.623Z,26.11
2023-09-04T17:07:06.570Z,25.97
2023-09-04T17:09:38.123Z,25.52
2023-09-04T17:12:10.385Z,25.38
2023-09-04T17:14:42.143Z,25.22
2023-09-04T17:17:13.686Z,25.20
2023-09-04T17:19:45.246Z,25.17
2023-09-04T17:22:16.850Z,24.97
2023-09-04T17:24:48.620Z,24.95
2023-09-04T17:27:20.269Z,24.80
2023-09-04T17:29:52.964Z,24.68
2023-09-04T17:32:24.611Z,24.58
2023-09-04T17:34:56.213Z,24.51
2023-09-04T17:37:27.814Z,24.41
2023-09-04T17:39:59.600Z,24.36
2023-09-04T17:42:31.089Z,24.19
2023-09-04T17:45:02.623Z,24.19
2023-09-04T17:47:34.180Z,24.04
2023-09-04T17:50:06.170Z,23.98
2023-09-04T17:52:37.733Z,23.89
2023-09-04T17:55:09.451Z,23.81
2023-09-04T17:57:41.075Z,23.72
2023-09-04T18:00:13.072Z,23.65
2023-09-04T18:02:44.748Z,23.54
2023-09-04T18:05:16.496Z,23.48
2023-09-04T18:07:49.263Z,23.41
2023-09-04T18:10:20.804Z,23.33
2023-09-04T18:12:52.386Z,23.24
2023-09-04T18:15:24.092Z,23.18
2023-09-04T18:17:55.834Z,23.07
2023-09-04T18:20:27.219Z,23.01
2023-09-04T18:22:58.791Z,22.93
2023-09-04T18:25:30.334Z,22.79
2023-09-04T18:28:02.318Z,22.73
2023-09-04T18:30:33.959Z,22.67
2023-09-04T18:33:05.566Z,22.59
2023-09-04T18:35:37.190Z,22.50
2023-09-04T18:38:08.769Z,22.40
2023-09-04T18:40:40.304Z,22.32
2023-09-04T18:43:11.888Z,22.22
2023-09-04T18:45:45.383Z,22.13
2023-09-04T18:48:17.093Z,22.05
2023-09-04T18:50:51.629Z,21.94
2023-09-04T18:53:23.805Z,21.88
2023-09-04T18:55:58.427Z,21.82
2023-09-04T18:58:30.621Z,21.75
2023-09-04T19:01:03.691Z,21.70
2023-09-04T19:03:35.851Z,21.52
2023-09-04T19:06:07.891Z,21.55
2023-09-04T19:08:39.536Z,21.51
2023-09-04T19:11:11.142Z,21.48
2023-09-04T19:13:42.766Z,21.45
2023-09-04T19:16:15.288Z,21.42
2023-09-04T19:18:47.246Z,21.32
2023-09-04T19:21:18.684Z,21.29
2023-09-04T19:23:50.637Z,21.25
2023-09-04T19:26:22.250Z,21.21
2023-09-04T19:28:54.223Z,21.16
2023-09-04T19:31:26.098Z,21.14
2023-09-04T19:33:57.730Z,21.08
2023-09-04T19:36:29.284Z,21.00
2023-09-04T19:39:00.850Z,20.91
2023-09-04T19:41:32.441Z,20.90
2023-09-04T19:44:04.642Z,20.86
2023-09-04T19:46:36.247Z,20.81
2023-09-04T19:49:07.993Z,20.78
2023-09-04T19:51:39.552Z,20.78
2023-09-04T19:54:11.119Z,20.73
2023-09-04T19:56:42.685Z,20.72
2023-09-04T19:59:14.429Z,20.68
2023-09-04T20:01:46.053Z,20.61
2023-09-04T20:04:17.745Z,20.60
2023-09-04T20:06:49.269Z,20.51
2023-09-04T20:09:20.839Z,20.47
2023-09-04T20:11:52.382Z,20.45
2023-09-04T20:14:23.936Z,20.42
2023-09-04T20:16:55.676Z,20.40
2023-09-04T20:19:27.421Z,20.31
2023-09-04T20:21:59.185Z,20.28
2023-09-04T20:24:30.759Z,20.21
2023-09-04T20:27:02.328Z,20.16
2023-09-04T20:29:33.942Z,20.10
2023-09-04T20:32:05.900Z,20.09
2023-09-04T20:34:37.355Z,20.04
2023-09-04T20:37:09.097Z,20.04
2023-09-04T20:39:40.791Z,19.98
2023-09-04T20:42:12.462Z,19.91
2023-09-04T20:44:45.579Z,19.88
2023-09-04T20:47:17.166Z,19.78
2023-09-04T20:49:48.722Z,19.76
2023-09-04T20:52:20.354Z,19.72
2023-09-04T20:54:51.908Z,19.65
2023-09-04T20:57:23.501Z,19.66
2023-09-04T20:59:55.173Z,19.60
2023-09-04T21:02:27.300Z,19.58
2023-09-04T21:04:59.098Z,19.51
2023-09-04T21:07:30.682Z,19.49
2023-09-04T21:10:02.487Z,19.49
2023-09-04T21:12:52.999Z,19.45
2023-09-04T21:15:43.141Z,19.38
2023-09-04T21:18:33.621Z,19.35
2023-09-04T21:21:23.865Z,19.27
2023-09-04T21:24:14.343Z,19.20
2023-09-04T21:27:04.399Z,19.21
2023-09-04T21:29:54.868Z,19.22
2023-09-04T21:32:45.288Z,19.21
2023-09-04T21:35:35.464Z,19.17
2023-09-04T21:38:25.991Z,19.14
2023-09-04T21:41:16.285Z,19.15
2023-09-04T21:44:06.770Z,19.12
2023-09-04T21:46:57.248Z,19.08
2023-09-04T21:49:47.537Z,19.02
2023-09-04T21:52:37.620Z,18.96
2023-09-04T21:55:28.282Z,18.91
2023-09-04T21:58:18.634Z,18.87
2023-09-04T22:01:09.314Z,18.85
2023-09-04T22:03:59.963Z,18.77
2023-09-04T22:06:50.196Z,18.74
2023-09-04T22:09:39.986Z,18.70
2023-09-04T22:12:30.310Z,18.64
2023-09-04T22:15:20.362Z,18.63
2023-09-04T22:18:12.418Z,18.60
2023-09-04T22:21:02.608Z,18.61
2023-09-04T22:23:52.577Z,18.58
2023-09-04T22:26:42.938Z,18.50
2023-09-04T22:29:33.170Z,18.50
2023-09-04T22:32:24.121Z,18.47
2023-09-04T22:35:15.499Z,18.46
2023-09-04T22:38:05.908Z,18.42
2023-09-04T22:40:56.138Z,18.37
2023-09-04T22:43:46.426Z,18.37
2023-09-04T22:46:36.921Z,18.36
2023-09-04T22:49:27.407Z,18.31
2023-09-04T22:52:17.458Z,18.26
2023-09-04T22:55:07.872Z,18.29
2023-09-04T22:57:57.962Z,18.23
2023-09-04T23:00:47.962Z,18.23
2023-09-04T23:03:38.282Z,18.11
2023-09-04T23:06:28.417Z,18.12
2023-09-04T23:09:18.664Z,18.11
2023-09-04T23:12:09.124Z,18.11
2023-09-04T23:14:59.033Z,18.09
2023-09-04T23:17:49.336Z,18.10
2023-09-04T23:20:39.449Z,18.06
2023-09-04T23:23:12.165Z,18.02
2023-09-04T23:25:48.341Z,18.01
2023-09-04T23:28:23.592Z,18.00
2023-09-04T23:30:58.072Z,17.98
2023-09-04T23:33:46.315Z,17.98
2023-09-04T23:36:36.898Z,17.96
2023-09-04T23:39:20.484Z,17.92
2023-09-04T23:42:10.772Z,17.88
2023-09-04T23:45:00.546Z,17.86
2023-09-04T23:47:32.477Z,17.85
2023-09-04T23:50:05.352Z,17.83
2023-09-04T23:52:37.255Z,17.78
2023-09-04T23:55:14.194Z,17.76
2023-09-04T23:57:50.345Z,17.71
